Ana Sayfa
METAR-TAF:

METAR-TAF

Havaalanları :

Tarakan, Endonezya

Enlem: 03-19-36N, Boylam: 117-33-56E, yükseklik: 6 m

Güncel hava durumu gözlemi

Rapor saat 11:00 UTC de 8 saat ve 49 dakika önce yapıldı.
Sakin rüzgar
Sıcaklık 29°C
Nem 84%
Basınç 1009 hPa
Görüş mesafesi: 8000 m
1500 ft yükseklikte parçalı bulutlu
civarda gök gürültülü fırtına

METAR: WAQQ 101100Z 00000KT 8000 VCTS SCT015 29/26 Q1009

Saat: 02:49 (19:49 UTC)

Tahmin

Rapor saat 17:00 UTC de 2 saat ve 49 dakika önce yapıldı.
Ayın 10'si saat 18 UTC'den ayın 11'si saat 06 UTC'ye kadar geçerli Tahmin
Rüzgar doğudan 3 kt
Görüş mesafesi: 4000 m
1500 ft yükseklikte az bulutlu, Kümülonimbus.
1500 ft yükseklikte parçalı çok bulutlu
gök gürültülü fırtına, yağmur
Dönüşüyor
ayın 10'si saat 21 UTC'den ayın 10'si saat 23 UTC'ye kadar
Görüş mesafesi: 8000 m
1500 ft yükseklikte parçalı bulutlu

TAF: WAQQ 101700Z 1018/1106 10003KT 4000 TSRA FEW015CB BKN015 BECMG 1021/1023 8000 NSW SCT015

4.000'den fazla havaalanı için hava durumu gözlemleri ve tahminleri (METAR ve TAF raporları).

Kullanılabilir istasyonlar harita üzerinde sarı ve kırmızı noktalarla gösterilir.

İstasyonun adını görmek için fareyi noktanın üzerinde gezdirin.

Sonrasında hava gözlem ve tahminlerini görmek için tıklayın.

Haritayı değiştirmek için: yaklaştırmak için siyah artı işaretli yeşil düğmeye ve uzaklaştırmak için de eksi işaretli düğmeye hızla tıklayın; bitişik haritalar için yeşil okları kullanın.


METAR-TAF: